Time;durP1;ratioP1;P1;durP2;ratioP2;P2;SDS_P1;SDS_P2;PMS_P1;PMS_P2;Temp;Humidity;BMP_temperature;BMP_pressure;BME280_temperature;BME280_humidity;BME280_pressure;Samples;Min_cycle;Max_cycle;Signal;HPM_P1;HPM_P2
2023/02/05 00:01:47;;;;;;;3.30;1.70;;;;;;;-5.82;75.14;96330.87;106948;1276;22530;-63
2023/02/05 00:04:16;;;;;;;2.90;1.80;;;;;;;-5.83;74.41;96336.59;106594;1276;22527;-63
2023/02/05 00:06:44;;;;;;;2.10;1.40;;;;;;;-5.87;74.59;96337.92;106628;1276;22532;-63
2023/02/05 00:09:12;;;;;;;2.90;1.80;;;;;;;-5.88;75.44;96344.07;106592;1276;25383;-63
2023/02/05 00:11:40;;;;;;;1.90;1.40;;;;;;;-5.88;75.78;96350.42;106611;1276;24161;-63
2023/02/05 00:14:09;;;;;;;3.60;1.60;;;;;;;-5.91;75.50;96359.77;106540;1276;24231;-63
2023/02/05 00:16:37;;;;;;;2.90;1.60;;;;;;;-5.90;75.84;96359.21;106637;1276;22528;-63
2023/02/05 00:19:06;;;;;;;3.50;1.70;;;;;;;-5.88;76.17;96360.17;106654;1276;22531;-63
2023/02/05 00:21:34;;;;;;;2.70;1.50;;;;;;;-5.91;76.08;96365.34;106553;1275;22529;-63
2023/02/05 00:24:03;;;;;;;3.10;1.20;;;;;;;-5.91;76.02;96363.25;106539;1276;22548;-63
2023/02/05 00:26:31;;;;;;;4.30;1.70;;;;;;;-5.89;75.76;96366.44;106672;1276;22524;-63
2023/02/05 00:28:59;;;;;;;3.80;1.80;;;;;;;-5.90;75.58;96363.98;106582;1276;22542;-63
2023/02/05 00:31:28;;;;;;;2.30;1.60;;;;;;;-5.90;75.50;96362.46;106594;1276;24249;-63
2023/02/05 00:33:57;;;;;;;3.80;1.80;;;;;;;-5.94;74.47;96363.96;106576;1276;24228;-63
2023/02/05 00:36:26;;;;;;;2.40;1.70;;;;;;;-5.96;74.19;96368.13;106586;1276;24260;-63
2023/02/05 00:38:54;;;;;;;2.80;1.10;;;;;;;-5.96;74.75;96372.25;106494;1276;22524;-63
2023/02/05 00:41:23;;;;;;;3.40;1.90;;;;;;;-5.97;73.47;96371.33;106452;1276;22772;-63
2023/02/05 00:43:51;;;;;;;2.70;0.90;;;;;;;-6.01;72.85;96374.00;106584;1276;22747;-63
2023/02/05 00:46:19;;;;;;;2.40;1.50;;;;;;;-6.04;73.10;96377.77;106601;1276;22932;-63
2023/02/05 00:48:47;;;;;;;2.90;1.60;;;;;;;-6.04;73.07;96377.27;106575;1276;22527;-63
2023/02/05 00:51:15;;;;;;;3.00;1.80;;;;;;;-6.04;72.90;96382.23;106620;1276;22576;-63
2023/02/05 00:53:43;;;;;;;2.90;1.90;;;;;;;-6.03;73.29;96384.02;106615;1276;22812;-63
2023/02/05 00:56:12;;;;;;;3.10;1.80;;;;;;;-6.00;73.39;96385.05;106565;1253;22632;-63
2023/02/05 00:58:46;;;;;;;2.90;2.00;;;;;;;-5.98;72.81;96381.37;106646;1276;22527;-63
2023/02/05 01:01:14;;;;;;;3.10;1.70;;;;;;;-5.98;72.52;96381.04;106616;1276;22659;-63
2023/02/05 01:03:43;;;;;;;3.70;1.90;;;;;;;-5.96;73.22;96378.58;106643;1276;26031;-63
2023/02/05 01:06:12;;;;;;;3.20;1.90;;;;;;;-5.90;73.62;96376.29;106608;1276;22685;-63
2023/02/05 01:08:40;;;;;;;3.50;1.90;;;;;;;-5.89;72.54;96378.77;106579;1276;22524;-63
2023/02/05 01:11:10;;;;;;;3.30;1.80;;;;;;;-5.90;72.70;96383.16;106589;1276;24547;-63
2023/02/05 01:13:38;;;;;;;5.50;2.40;;;;;;;-5.86;72.99;96386.80;106598;1276;24247;-63
2023/02/05 01:16:09;;;;;;;4.50;2.20;;;;;;;-5.84;72.23;96385.72;106571;1276;25489;-63
2023/02/05 01:18:37;;;;;;;3.80;1.80;;;;;;;-5.92;71.78;96390.62;106641;1276;25340;-63
2023/02/05 01:21:05;;;;;;;2.10;1.30;;;;;;;-5.97;71.74;96396.00;106604;1276;22593;-63
2023/02/05 01:23:34;;;;;;;3.20;1.70;;;;;;;-5.97;71.77;96395.84;106643;1276;22579;-63
2023/02/05 01:26:02;;;;;;;5.20;2.50;;;;;;;-5.93;72.47;96395.17;106619;1276;25487;-63
2023/02/05 01:28:30;;;;;;;4.00;2.20;;;;;;;-5.90;71.83;96393.48;106609;1276;24385;-63
2023/02/05 01:30:58;;;;;;;4.00;2.40;;;;;;;-5.84;72.54;96392.74;106616;1276;22513;-63
2023/02/05 01:33:27;;;;;;;5.00;2.00;;;;;;;-5.79;72.47;96394.08;106602;1276;22564;-63
2023/02/05 01:35:55;;;;;;;3.20;1.70;;;;;;;-5.76;72.48;96392.85;106685;1276;22519;-63
2023/02/05 01:38:23;;;;;;;5.20;2.10;;;;;;;-5.79;72.44;96389.45;106648;1276;25379;-63
2023/02/05 01:40:51;;;;;;;13.60;3.80;;;;;;;-5.78;72.42;96389.80;106586;1276;22792;-63
2023/02/05 01:43:19;;;;;;;4.00;1.80;;;;;;;-5.74;72.64;96386.77;106561;1276;24517;-63
2023/02/05 01:45:51;;;;;;;4.00;2.00;;;;;;;-5.79;72.76;96387.17;106621;1276;22631;-63
2023/02/05 01:48:24;;;;;;;2.90;1.60;;;;;;;-5.79;73.03;96390.30;106616;1276;22572;-63
2023/02/05 01:50:57;;;;;;;3.90;1.80;;;;;;;-5.81;73.26;96393.77;106597;1276;24352;-63
2023/02/05 01:53:30;;;;;;;4.90;1.80;;;;;;;-5.80;73.46;96395.39;106609;1276;22663;-63
2023/02/05 01:56:13;;;;;;;2.50;1.70;;;;;;;-5.83;73.51;96395.01;106602;1276;22939;-63
2023/02/05 01:59:07;;;;;;;2.80;2.10;;;;;;;-5.81;74.23;96401.50;106772;1276;22577;-63
2023/02/05 02:01:39;;;;;;;3.80;2.20;;;;;;;-5.88;73.88;96404.88;106829;1276;23943;-63
2023/02/05 02:04:10;;;;;;;4.30;2.10;;;;;;;-5.89;73.83;96402.42;106705;1264;23273;-63
2023/02/05 02:06:38;;;;;;;4.10;1.70;;;;;;;-5.95;73.44;96396.61;106603;1276;24248;-63
2023/02/05 02:09:07;;;;;;;2.60;1.70;;;;;;;-6.00;73.77;96406.11;106610;1276;24304;-63
2023/02/05 02:11:41;;;;;;;3.70;1.60;;;;;;;-6.01;74.08;96412.20;106870;1276;22532;-63
2023/02/05 02:14:10;;;;;;;2.80;2.00;;;;;;;-6.03;74.23;96410.16;106591;1276;22642;-63
2023/02/05 02:16:40;;;;;;;3.20;1.80;;;;;;;-5.99;74.96;96409.92;106614;1276;22654;-63
2023/02/05 02:19:44;;;;;;;3.70;1.90;;;;;;;-5.92;75.04;96413.73;106717;1276;24905;-63
2023/02/05 02:22:28;;;;;;;;;;;;;;;-5.89;73.44;96410.45;106511;1276;22779;-63
2023/02/05 02:25:36;;;;;;;3.90;1.70;;;;;;;-5.94;73.07;96408.47;106595;1276;24061;-63
2023/02/05 02:28:09;;;;;;;4.10;1.60;;;;;;;-6.05;73.03;96407.55;106623;1276;25471;-63
2023/02/05 02:30:55;;;;;;;3.20;2.10;;;;;;;-6.15;73.29;96407.32;106625;1276;23274;-63
2023/02/05 02:33:42;;;;;;;4.80;2.30;;;;;;;-6.25;73.18;96408.39;106601;1276;25469;-63
2023/02/05 02:36:20;;;;;;;3.70;2.00;;;;;;;-6.34;73.35;96412.86;106604;1276;22629;-63
2023/02/05 02:39:12;;;;;;;7.70;1.80;;;;;;;-6.49;73.63;96417.30;106663;1276;23182;-63
2023/02/05 02:41:49;;;;;;;4.70;2.50;;;;;;;-6.56;74.56;96419.58;106615;1276;25515;-63
2023/02/05 02:44:40;;;;;;;2.30;1.40;;;;;;;-6.54;74.65;96415.80;106586;1276;22535;-63
2023/02/05 02:47:20;;;;;;;2.90;2.00;;;;;;;-6.62;74.88;96414.80;106616;1276;23158;-63
2023/02/05 02:49:56;;;;;;;3.70;2.00;;;;;;;-6.63;75.29;96420.05;106597;1276;22523;-63
2023/02/05 02:52:28;;;;;;;1.50;1.40;;;;;;;-6.68;75.51;96427.92;106613;1276;22630;-63
2023/02/05 02:55:03;;;;;;;3.30;2.50;;;;;;;-6.74;75.59;96438.20;106679;1276;22792;-63
2023/02/05 02:57:34;;;;;;;4.60;2.40;;;;;;;-6.81;75.95;96436.39;106821;1276;22653;-63
2023/02/05 03:00:09;;;;;;;5.40;2.90;;;;;;;-6.86;76.38;96430.10;106621;1276;25470;-63
2023/02/05 03:02:39;;;;;;;6.70;3.20;;;;;;;-6.87;76.93;96435.38;106567;1273;22575;-63
2023/02/05 03:05:13;;;;;;;8.30;3.40;;;;;;;-6.82;77.01;96437.06;106658;1272;22527;-63
2023/02/05 03:07:48;;;;;;;4.60;2.00;;;;;;;-6.79;77.26;96442.17;106674;1276;22636;-63
2023/02/05 03:10:39;;;;;;;7.40;3.80;;;;;;;-6.83;77.09;96443.83;106634;1276;22542;-62
2023/02/05 03:13:10;;;;;;;4.50;2.40;;;;;;;-6.84;77.25;96448.73;106802;1269;22517;-63
2023/02/05 03:15:42;;;;;;;4.60;2.20;;;;;;;-6.80;77.22;96450.30;106625;1276;23189;-63
2023/02/05 03:18:14;;;;;;;6.00;3.40;;;;;;;-6.82;77.11;96449.55;106633;1276;22508;-63
2023/02/05 03:21:03;;;;;;;5.30;3.50;;;;;;;-6.78;77.62;96453.52;106637;1276;25478;-63
2023/02/05 03:23:31;;;;;;;7.60;3.90;;;;;;;-6.72;77.59;96449.77;106600;1276;22691;-63
2023/02/05 03:26:00;;;;;;;4.20;2.90;;;;;;;-6.71;77.52;96448.45;106584;1276;26124;-63
2023/02/05 03:28:35;;;;;;;4.30;2.90;;;;;;;-6.71;77.65;96448.94;106545;1276;22535;-63
2023/02/05 03:31:15;;;;;;;5.60;3.10;;;;;;;-6.72;77.63;96451.67;106598;1276;22531;-63
2023/02/05 03:34:02;;;;;;;6.80;3.00;;;;;;;-6.69;77.74;96450.64;106627;1276;22544;-63
2023/02/05 03:36:48;;;;;;;4.70;3.10;;;;;;;-6.68;77.81;96454.61;106614;1276;22587;-63
2023/02/05 03:39:51;;;;;;;7.00;3.20;;;;;;;-6.68;77.88;96459.09;106639;1276;22531;-63
2023/02/05 03:42:35;;;;;;;4.70;2.60;;;;;;;-6.70;77.89;96461.39;106622;1276;24447;-63
2023/02/05 03:45:19;;;;;;;5.50;3.40;;;;;;;-6.70;77.93;96466.50;106616;1276;24304;-63
2023/02/05 03:48:01;;;;;;;4.70;3.40;;;;;;;-6.69;77.88;96467.88;106612;1276;26805;-62
2023/02/05 03:50:42;;;;;;;6.30;3.80;;;;;;;-6.68;77.85;96475.17;106653;1276;24250;-63
2023/02/05 03:53:17;;;;;;;5.80;3.20;;;;;;;-6.66;77.81;96472.20;106596;1260;22516;-63
2023/02/05 03:56:03;;;;;;;6.10;3.50;;;;;;;-6.67;77.82;96474.71;106614;1276;22672;-63
2023/02/05 03:58:42;;;;;;;5.90;3.30;;;;;;;-6.70;77.75;96473.33;106640;1276;22749;-63
2023/02/05 04:01:12;;;;;;;5.60;3.00;;;;;;;-6.73;77.94;96471.80;106638;1276;25277;-63
2023/02/05 04:03:41;;;;;;;5.60;3.40;;;;;;;-6.75;77.95;96469.62;106599;1276;22601;-63
2023/02/05 04:06:10;;;;;;;7.20;3.90;;;;;;;-6.78;77.93;96469.11;106596;1276;24250;-63
2023/02/05 04:08:39;;;;;;;7.30;3.80;;;;;;;-6.78;78.17;96471.64;106547;1276;22520;-63
2023/02/05 04:11:08;;;;;;;6.40;3.70;;;;;;;-6.79;78.37;96472.83;106605;1276;25395;-63
2023/02/05 04:13:36;;;;;;;6.00;3.40;;;;;;;-6.81;78.29;96472.68;106618;1276;25227;-63
2023/02/05 04:16:05;;;;;;;5.60;3.30;;;;;;;-6.84;78.50;96475.70;106582;1276;22727;-63
2023/02/05 04:18:34;;;;;;;5.40;3.20;;;;;;;-6.90;78.80;96478.81;106640;1276;24562;-63
2023/02/05 04:21:03;;;;;;;6.50;4.00;;;;;;;-6.93;78.82;96479.98;106626;1276;22521;-63
2023/02/05 04:23:32;;;;;;;5.40;3.40;;;;;;;-6.94;78.75;96482.95;106751;1276;24063;-63
2023/02/05 04:26:00;;;;;;;6.70;3.90;;;;;;;-6.94;78.88;96484.50;106580;1276;25561;-63
2023/02/05 04:28:33;;;;;;;6.40;3.80;;;;;;;-6.94;78.85;96488.77;106624;1276;25396;-63
2023/02/05 04:31:11;;;;;;;6.00;3.10;;;;;;;-6.97;78.86;96494.97;106656;1276;24273;-63
2023/02/05 04:33:40;;;;;;;6.90;3.70;;;;;;;-6.98;78.99;96496.09;106612;1276;22524;-63
2023/02/05 04:36:10;;;;;;;6.10;3.40;;;;;;;-6.99;78.86;96499.79;106625;1276;25605;-63
2023/02/05 04:38:39;;;;;;;7.00;4.10;;;;;;;-7.00;78.99;96503.81;106645;1276;22520;-63
2023/02/05 04:41:08;;;;;;;4.50;2.80;;;;;;;-7.01;79.01;96510.59;106629;1276;22532;-63
2023/02/05 04:43:36;;;;;;;7.20;3.30;;;;;;;-7.05;78.98;96509.17;106594;1276;25384;-63
2023/02/05 04:46:06;;;;;;;7.00;3.90;;;;;;;-7.05;79.24;96515.16;106587;1276;25220;-63
2023/02/05 04:54:37;;;;;;;9.90;4.00;;;;;;;-7.06;79.04;96513.37;103666;1313;544868;-63
2023/02/05 04:57:05;;;;;;;5.10;3.10;;;;;;;-7.15;79.06;96515.69;106296;1286;25302;-63
2023/02/05 04:59:33;;;;;;;6.50;3.00;;;;;;;-7.23;79.25;96521.52;106254;1285;24370;-63
2023/02/05 05:02:01;;;;;;;5.40;3.20;;;;;;;-7.34;79.47;96519.80;106258;1286;22533;-63
2023/02/05 05:04:29;;;;;;;5.70;3.40;;;;;;;-7.41;79.42;96524.46;106299;1286;25614;-63
2023/02/05 05:06:58;;;;;;;4.50;2.90;;;;;;;-7.49;79.45;96522.90;106283;1285;22553;-63
2023/02/05 05:09:26;;;;;;;6.30;3.20;;;;;;;-7.56;79.37;96528.45;105914;1283;654555;-63
2023/02/05 05:11:57;;;;;;;5.70;3.20;;;;;;;-7.66;79.90;96529.03;106321;1283;24562;-63
2023/02/05 05:14:27;;;;;;;9.00;3.70;;;;;;;-7.72;79.88;96535.23;106346;1283;22527;-63
2023/02/05 05:16:55;;;;;;;7.60;3.60;;;;;;;-7.78;80.48;96538.45;106364;1283;24237;-63
2023/02/05 05:19:23;;;;;;;6.10;4.10;;;;;;;-7.83;80.49;96543.94;106956;1275;22617;-63
2023/02/05 05:21:51;;;;;;;7.60;3.70;;;;;;;-7.88;80.79;96542.45;106920;1275;25535;-63
2023/02/05 05:24:19;;;;;;;6.70;4.20;;;;;;;-7.87;81.06;96553.05;106595;1275;25515;-63
2023/02/05 05:26:47;;;;;;;9.80;5.00;;;;;;;-7.86;81.25;96553.10;106553;1275;25540;-63
2023/02/05 05:29:15;;;;;;;12.20;6.20;;;;;;;-7.85;81.41;96557.65;106503;1275;25468;-63
2023/02/05 05:31:43;;;;;;;15.40;5.10;;;;;;;-7.81;81.63;96564.91;106637;1275;22630;-63
2023/02/05 05:34:12;;;;;;;7.10;4.60;;;;;;;-7.77;81.78;96568.58;106577;1275;22771;-63
2023/02/05 05:36:42;;;;;;;9.30;5.20;;;;;;;-7.72;81.81;96571.63;106583;1275;25536;-63
2023/02/05 05:44:48;;;;;;;6.50;3.70;;;;;;;-7.59;81.64;96583.27;106845;1275;22571;-63
2023/02/05 05:47:18;;;;;;;7.50;4.30;;;;;;;-7.57;81.55;96579.83;107000;1275;24244;-63
2023/02/05 05:49:46;;;;;;;9.30;5.00;;;;;;;-7.53;81.40;96571.02;106947;1275;24257;-63
2023/02/05 05:52:14;;;;;;;7.30;4.20;;;;;;;-7.52;81.44;96574.98;106619;1275;24259;-63
2023/02/05 05:54:42;;;;;;;9.30;4.90;;;;;;;-7.51;81.43;96573.92;106596;1275;24458;-63
2023/02/05 05:57:10;;;;;;;9.10;5.50;;;;;;;-7.51;81.36;96578.54;106624;1274;22508;-63
2023/02/05 05:59:38;;;;;;;6.70;4.80;;;;;;;-7.49;81.17;96589.37;106600;1275;26852;-63
2023/02/05 06:02:07;;;;;;;10.10;5.90;;;;;;;-7.51;81.10;96599.49;106714;1275;22517;-63
2023/02/05 06:04:35;;;;;;;9.90;4.50;;;;;;;-7.52;80.93;96606.96;106551;1275;24350;-63
2023/02/05 06:07:03;;;;;;;8.00;4.60;;;;;;;-7.53;80.93;96609.49;106516;1275;22682;-64
2023/02/05 06:09:31;;;;;;;6.80;4.20;;;;;;;-7.49;81.09;96615.02;106760;1275;22643;-63
2023/02/05 06:11:59;;;;;;;6.70;4.20;;;;;;;-7.41;81.28;96614.89;106546;1275;22719;-63
2023/02/05 06:14:27;;;;;;;6.40;4.20;;;;;;;-7.35;80.87;96614.91;106640;1275;22521;-63
2023/02/05 06:16:55;;;;;;;7.70;4.10;;;;;;;-7.31;80.57;96617.27;106537;1275;22517;-63
2023/02/05 06:19:24;;;;;;;7.40;4.10;;;;;;;-7.22;80.44;96616.48;106548;1275;22525;-63
2023/02/05 06:21:52;;;;;;;7.10;2.80;;;;;;;-7.13;80.46;96619.39;106573;1275;22666;-63
2023/02/05 06:24:20;;;;;;;7.20;3.40;;;;;;;-7.08;80.10;96613.27;106535;1275;23888;-63
2023/02/05 06:26:48;;;;;;;7.00;4.00;;;;;;;-7.07;79.77;96615.39;106570;1275;22531;-63
2023/02/05 06:29:16;;;;;;;7.00;3.70;;;;;;;-7.08;79.56;96620.13;106561;1275;22521;-63
2023/02/05 06:31:44;;;;;;;8.20;3.80;;;;;;;-7.08;79.61;96624.23;106534;1275;25486;-64
2023/02/05 06:34:12;;;;;;;7.20;4.10;;;;;;;-7.01;79.89;96622.44;106525;1275;22516;-63
2023/02/05 06:36:40;;;;;;;15.90;8.40;;;;;;;-6.87;79.96;96620.43;106555;1275;26824;-63
2023/02/05 06:39:09;;;;;;;8.60;4.50;;;;;;;-6.79;79.09;96629.69;106546;1275;22520;-64
2023/02/05 06:41:37;;;;;;;6.40;3.70;;;;;;;-6.70;79.05;96627.49;106579;1275;23889;-63
2023/02/05 06:44:05;;;;;;;4.60;2.90;;;;;;;-6.61;78.58;96626.05;106580;1275;22466;-63
2023/02/05 06:46:33;;;;;;;6.70;4.30;;;;;;;-6.54;78.42;96626.46;106544;1275;25387;-63
2023/02/05 06:49:01;;;;;;;6.30;4.10;;;;;;;-6.46;78.35;96621.79;106380;1275;23504;-63
2023/02/05 06:51:30;;;;;;;7.50;3.90;;;;;;;-6.46;77.65;96621.16;106575;1275;22524;-63
2023/02/05 06:54:01;;;;;;;8.40;4.00;;;;;;;-6.50;77.37;96619.89;106474;1275;25304;-63
2023/02/05 06:56:29;;;;;;;7.50;4.50;;;;;;;-6.53;77.23;96615.55;106554;1275;23881;-63
2023/02/05 06:58:57;;;;;;;9.30;4.80;;;;;;;-6.49;77.60;96622.82;106569;1275;23878;-63
2023/02/05 07:01:26;;;;;;;9.00;5.80;;;;;;;-6.44;77.22;96626.73;106534;1275;25387;-63
2023/02/05 07:03:55;;;;;;;16.70;9.20;;;;;;;-6.44;76.82;96625.36;106576;1275;25326;-63
2023/02/05 07:06:24;;;;;;;12.40;6.70;;;;;;;-6.38;77.06;96628.14;106660;1275;25608;-63
2023/02/05 07:08:52;;;;;;;6.80;4.10;;;;;;;-6.36;76.58;96631.00;106646;1265;24391;-63
2023/02/05 07:11:22;;;;;;;8.10;4.90;;;;;;;-6.40;76.35;96633.31;106619;1275;24394;-63
2023/02/05 07:13:51;;;;;;;10.30;5.50;;;;;;;-6.37;76.35;96628.52;106509;1275;22699;-64
2023/02/05 07:16:19;;;;;;;23.70;10.80;;;;;;;-6.32;76.30;96640.84;106568;1275;24350;-63
2023/02/05 07:18:47;;;;;;;12.90;6.70;;;;;;;-6.29;76.05;96641.86;106651;1264;22520;-63
2023/02/05 07:21:16;;;;;;;10.90;5.30;;;;;;;-6.21;75.98;96643.56;106819;1275;22652;-63
2023/02/05 07:23:44;;;;;;;10.20;5.20;;;;;;;-6.16;75.81;96648.71;106880;1275;25491;-63
2023/02/05 07:26:14;;;;;;;8.30;4.00;;;;;;;-6.03;75.85;96650.16;106557;1275;22529;-63
2023/02/05 07:28:44;;;;;;;11.40;5.80;;;;;;;-5.99;75.20;96651.65;106596;1275;22522;-63
2023/02/05 07:31:14;;;;;;;8.10;4.10;;;;;;;-5.88;75.01;96650.22;106591;1275;22532;-63
2023/02/05 07:33:44;;;;;;;10.60;4.20;;;;;;;-5.76;74.87;96651.25;106617;1275;22581;-63
2023/02/05 07:36:16;;;;;;;8.80;4.80;;;;;;;-5.75;73.72;96652.03;106619;1275;22537;-63
2023/02/05 07:38:46;;;;;;;6.40;3.40;;;;;;;-5.74;73.63;96653.13;106583;1275;22580;-63
2023/02/05 07:41:15;;;;;;;6.10;4.00;;;;;;;-5.68;73.83;96646.11;106559;1275;25387;-63
2023/02/05 07:43:43;;;;;;;8.10;4.50;;;;;;;-5.62;73.56;96649.39;106526;1275;24253;-63
2023/02/05 07:46:13;;;;;;;7.30;4.90;;;;;;;-5.50;73.34;96649.23;106546;1275;24381;-63
2023/02/05 07:48:42;;;;;;;9.90;4.70;;;;;;;-5.37;73.44;96643.30;106586;1275;25307;-63
2023/02/05 07:51:19;;;;;;;7.50;3.90;;;;;;;-5.33;72.38;96642.17;106595;1275;22577;-63
2023/02/05 07:53:48;;;;;;;7.90;4.60;;;;;;;-5.28;72.16;96645.35;106586;1275;24379;-63
2023/02/05 07:56:16;;;;;;;10.30;4.70;;;;;;;-5.21;72.05;96647.31;106759;1275;22532;-63
2023/02/05 07:58:44;;;;;;;8.20;4.60;;;;;;;-5.12;71.81;96650.09;106565;1275;24397;-63
2023/02/05 08:01:12;;;;;;;5.10;3.70;;;;;;;-4.95;71.62;96651.04;106592;1275;24368;-63
2023/02/05 08:03:41;;;;;;;5.80;3.40;;;;;;;-4.77;71.31;96654.34;106604;1275;22646;-63
2023/02/05 08:06:13;;;;;;;8.90;4.20;;;;;;;-4.63;70.39;96657.36;106624;1275;23015;-63
2023/02/05 08:08:42;;;;;;;6.90;4.00;;;;;;;-4.48;69.80;96657.33;106628;1275;23918;-63
2023/02/05 08:11:14;;;;;;;4.70;2.80;;;;;;;-4.34;69.35;96656.23;106664;1275;24229;-63
2023/02/05 08:13:44;;;;;;;7.40;3.80;;;;;;;-4.35;68.49;96657.58;106598;1275;25426;-63
2023/02/05 08:16:17;;;;;;;6.80;3.60;;;;;;;-4.41;68.38;96658.43;106389;1275;22516;-63
2023/02/05 08:18:49;;;;;;;8.20;3.70;;;;;;;-4.37;68.19;96663.30;106604;1275;24264;-63
2023/02/05 08:21:20;;;;;;;6.10;3.50;;;;;;;-4.30;68.54;96661.09;106578;1275;23884;-63
2023/02/05 08:23:48;;;;;;;7.30;3.90;;;;;;;-4.38;67.78;96665.98;106553;1275;24748;-63
2023/02/05 08:26:17;;;;;;;9.50;6.10;;;;;;;-4.56;68.08;96669.59;106534;1275;22607;-63
2023/02/05 08:28:45;;;;;;;8.00;5.00;;;;;;;-4.62;68.65;96675.94;106585;1275;22529;-63
2023/02/05 08:31:17;;;;;;;12.10;5.70;;;;;;;-4.59;69.13;96680.79;106547;1275;22527;-63
2023/02/05 08:33:46;;;;;;;8.50;5.00;;;;;;;-4.55;69.11;96686.80;106567;1275;24385;-63
2023/02/05 08:36:15;;;;;;;7.30;4.20;;;;;;;-4.61;68.54;96687.20;106614;1275;22551;-63
2023/02/05 08:38:43;;;;;;;8.40;5.20;;;;;;;-4.70;68.54;96690.96;106591;1275;22530;-63
2023/02/05 08:41:11;;;;;;;8.10;4.60;;;;;;;-4.83;68.94;96694.67;106588;1275;25378;-63
2023/02/05 08:43:45;;;;;;;10.10;6.10;;;;;;;-4.90;69.39;96695.67;106556;1275;24418;-63
2023/02/05 08:46:21;;;;;;;7.40;4.30;;;;;;;-4.70;69.95;96697.14;106581;1264;25555;-63
2023/02/05 08:48:49;;;;;;;7.40;3.90;;;;;;;-4.15;69.30;96693.69;106588;1271;24492;-63
2023/02/05 08:51:19;;;;;;;10.70;5.30;;;;;;;-3.78;67.73;96690.21;106602;1275;24259;-63
2023/02/05 08:53:47;;;;;;;7.90;4.80;;;;;;;-3.55;67.02;96690.58;106625;1263;22533;-63
2023/02/05 08:56:16;;;;;;;8.90;5.20;;;;;;;-3.09;66.65;96688.48;106567;1275;25397;-63
2023/02/05 08:58:47;;;;;;;7.50;5.30;;;;;;;-2.71;65.46;96680.38;106569;1275;22540;-63
2023/02/05 09:01:16;;;;;;;8.10;4.90;;;;;;;-2.51;64.50;96678.15;106655;1275;22522;-64
2023/02/05 09:03:45;;;;;;;8.20;4.30;;;;;;;-2.26;62.79;96678.50;106626;1275;22621;-63
2023/02/05 09:06:15;;;;;;;9.30;5.90;;;;;;;-2.14;61.94;96682.13;106631;1275;22516;-63
2023/02/05 09:08:43;;;;;;;8.30;4.60;;;;;;;-2.12;61.59;96681.70;106582;1275;22643;-63
2023/02/05 09:11:12;;;;;;;10.00;5.80;;;;;;;-2.31;61.21;96677.73;106571;1275;22620;-63
2023/02/05 09:13:40;;;;;;;8.60;5.00;;;;;;;-2.45;61.28;96683.59;106615;1275;22527;-63
2023/02/05 09:16:11;;;;;;;13.10;7.40;;;;;;;-2.40;61.57;96683.52;106527;1275;22523;-63
2023/02/05 09:18:40;;;;;;;6.90;4.70;;;;;;;-2.44;61.74;96682.11;106557;1275;25516;-63
2023/02/05 09:21:09;;;;;;;8.80;5.40;;;;;;;-2.45;62.01;96681.70;106588;1275;24243;-63
2023/02/05 09:23:37;;;;;;;10.50;6.20;;;;;;;-2.31;62.24;96681.86;106577;1275;22559;-63
2023/02/05 09:26:07;;;;;;;7.10;4.50;;;;;;;-2.24;61.47;96686.33;106654;1275;25401;-63
2023/02/05 09:28:35;;;;;;;10.50;5.80;;;;;;;-1.93;62.17;96689.34;106585;1275;22599;-63
2023/02/05 09:31:10;;;;;;;5.90;4.30;;;;;;;-1.56;60.39;96688.29;106659;1275;23150;-63
2023/02/05 09:33:39;;;;;;;8.20;5.50;;;;;;;-1.81;59.99;96689.20;106660;1275;24044;-63
2023/02/05 09:36:18;;;;;;;7.20;4.50;;;;;;;-2.39;60.28;96683.18;106636;1275;22531;-63
2023/02/05 09:38:47;;;;;;;10.40;6.80;;;;;;;-2.89;61.28;96681.39;106603;1275;25506;-63
2023/02/05 09:41:24;;;;;;;13.20;6.70;;;;;;;-3.15;62.06;96682.70;106577;1275;22598;-63
2023/02/05 09:44:11;;;;;;;9.30;6.00;;;;;;;-3.34;62.25;96687.20;106631;1275;24452;-63
2023/02/05 09:46:52;;;;;;;8.40;5.30;;;;;;;-3.57;63.16;96686.02;106633;1275;22530;-63
2023/02/05 09:49:42;;;;;;;11.50;7.50;;;;;;;-3.77;63.87;96685.96;106575;1275;22639;-63
2023/02/05 09:52:19;;;;;;;9.40;5.80;;;;;;;-3.75;64.21;96685.58;106550;1275;26634;-63
2023/02/05 09:54:53;;;;;;;8.10;4.20;;;;;;;-3.67;64.17;96683.08;106579;1252;26014;-63
2023/02/05 09:57:32;;;;;;;8.40;4.70;;;;;;;-3.55;64.24;96683.55;106787;1275;22725;-63
2023/02/05 10:00:03;;;;;;;8.30;4.40;;;;;;;-3.47;63.84;96681.21;106605;1275;24051;-63
2023/02/05 10:03:05;;;;;;;9.50;5.50;;;;;;;-3.58;63.17;96669.25;106607;1275;22523;-63
2023/02/05 10:05:56;;;;;;;7.20;4.40;;;;;;;-3.97;63.82;96668.36;106579;1275;25111;-63
2023/02/05 10:08:53;;;;;;;7.70;4.90;;;;;;;-3.59;63.90;96662.52;106558;1275;25475;-63
2023/02/05 10:11:33;;;;;;;7.20;4.60;;;;;;;-2.97;62.66;96654.65;106686;1275;23951;-63
2023/02/05 10:14:20;;;;;;;10.40;5.00;;;;;;;-2.54;61.61;96653.88;106574;1275;22563;-63
2023/02/05 10:17:03;;;;;;;10.20;5.70;;;;;;;-2.27;59.79;96652.77;106629;1275;22527;-63
2023/02/05 10:19:55;;;;;;;8.50;5.30;;;;;;;-2.07;59.36;96645.77;106582;1275;22613;-63
2023/02/05 10:22:42;;;;;;;8.60;4.50;;;;;;;-1.82;59.18;96649.34;106552;1275;22534;-63
2023/02/05 10:25:16;;;;;;;9.60;6.30;;;;;;;-1.46;57.80;96636.98;106533;1275;24388;-63
2023/02/05 10:27:49;;;;;;;9.50;5.60;;;;;;;-1.25;56.99;96636.85;106629;1275;24240;-63
2023/02/05 10:30:36;;;;;;;12.80;6.40;;;;;;;-1.14;56.76;96634.72;106570;1275;24285;-63
2023/02/05 10:33:25;;;;;;;9.80;5.30;;;;;;;-0.54;55.61;96635.00;106604;1275;22542;-63
2023/02/05 10:36:01;;;;;;;8.50;5.40;;;;;;;0.05;53.60;96630.92;106560;1275;24274;-63
2023/02/05 10:38:35;;;;;;;9.90;5.20;;;;;;;-0.30;53.07;96629.71;106561;1275;22527;-63
2023/02/05 10:41:18;;;;;;;8.90;5.40;;;;;;;-0.78;54.42;96634.20;106614;1254;23015;-64
2023/02/05 10:44:03;;;;;;;7.70;4.50;;;;;;;-0.62;54.20;96632.77;106566;1275;24047;-64
2023/02/05 10:46:34;;;;;;;7.30;5.00;;;;;;;-0.22;53.56;96628.14;106568;1275;22522;-64
2023/02/05 10:49:14;;;;;;;7.10;4.80;;;;;;;0.11;52.70;96619.95;106612;1275;22652;-64
2023/02/05 10:51:44;;;;;;;7.60;5.00;;;;;;;0.43;52.52;96615.77;106600;1275;26686;-64
2023/02/05 10:54:32;;;;;;;13.10;6.00;;;;;;;0.63;50.89;96617.88;106614;1275;25700;-64
2023/02/05 10:57:00;;;;;;;7.40;5.10;;;;;;;1.10;51.41;96615.72;106575;1275;24070;-64
2023/02/05 10:59:32;;;;;;;7.20;4.80;;;;;;;0.89;48.76;96613.95;106563;1275;22607;-64
2023/02/05 11:02:04;;;;;;;6.60;4.40;;;;;;;0.95;49.20;96615.70;106613;1270;24264;-64
2023/02/05 11:04:47;;;;;;;8.80;5.10;;;;;;;1.06;48.56;96619.55;106607;1275;25385;-64
2023/02/05 11:07:42;;;;;;;9.10;6.10;;;;;;;1.32;47.82;96621.84;106565;1275;22520;-65
2023/02/05 11:10:32;;;;;;;7.50;5.00;;;;;;;1.42;46.84;96618.17;106627;1275;22657;-64
2023/02/05 11:13:15;;;;;;;14.60;8.50;;;;;;;1.52;47.07;96624.20;106589;1275;22527;-65
2023/02/05 11:15:54;;;;;;;6.20;4.40;;;;;;;1.86;46.49;96623.75;106612;1276;25343;-65
2023/02/05 11:18:27;;;;;;;10.00;6.30;;;;;;;2.07;45.57;96618.48;106566;1276;22529;-65
2023/02/05 11:20:58;;;;;;;9.90;6.90;;;;;;;2.19;44.42;96616.96;106589;1275;22737;-65
2023/02/05 11:23:38;;;;;;;6.80;4.40;;;;;;;2.08;44.39;96615.23;106574;1276;25477;-65
2023/02/05 11:26:14;;;;;;;6.60;4.40;;;;;;;2.32;43.75;96617.33;106632;1275;23881;-65
2023/02/05 11:28:42;;;;;;;6.80;5.00;;;;;;;2.67;43.84;96602.90;106590;1275;24476;-65
2023/02/05 11:31:26;;;;;;;8.00;5.10;;;;;;;3.13;43.33;96602.07;106972;1269;22555;-65
2023/02/05 11:34:06;;;;;;;8.00;5.00;;;;;;;2.99;42.39;96603.77;106713;1275;22531;-65
2023/02/05 11:36:37;;;;;;;9.10;6.30;;;;;;;3.16;42.82;96602.83;106599;1276;22875;-66
2023/02/05 11:39:06;;;;;;;6.40;4.80;;;;;;;3.67;43.14;96599.77;106597;1276;25479;-65
2023/02/05 11:41:50;;;;;;;9.00;6.10;;;;;;;3.23;42.62;96600.58;106569;1276;24309;-66
2023/02/05 11:44:24;;;;;;;6.50;5.00;;;;;;;3.34;42.59;96598.77;106626;1276;25231;-66
2023/02/05 11:46:58;;;;;;;7.00;5.00;;;;;;;3.31;41.75;96594.02;106554;1275;22636;-66
2023/02/05 11:49:38;;;;;;;6.10;4.50;;;;;;;3.43;42.49;96591.54;106583;1275;25298;-66
2023/02/05 11:52:13;;;;;;;8.20;4.20;;;;;;;3.70;41.69;96588.38;106625;1275;26616;-66
2023/02/05 11:54:46;;;;;;;6.40;4.60;;;;;;;3.81;40.22;96591.39;106582;1275;24239;-66
2023/02/05 11:57:17;;;;;;;;;;;;;;;4.18;40.48;96582.15;106627;1276;25335;-66
2023/02/05 12:00:19;;;;;;;5.80;4.30;;;;;;;3.95;40.25;96584.22;106648;1276;25226;-66
2023/02/05 12:02:50;;;;;;;5.60;4.00;;;;;;;3.38;40.56;96586.86;106645;1275;22520;-66
2023/02/05 12:05:25;;;;;;;7.30;4.90;;;;;;;3.82;41.47;96585.85;106566;1275;25262;-66